Time;durP1;ratioP1;P1;durP2;ratioP2;P2;SDS_P1;SDS_P2;PMS_P1;PMS_P2;Temp;Humidity;BMP_temperature;BMP_pressure;BME280_temperature;BME280_humidity;BME280_pressure;Samples;Min_cycle;Max_cycle;Signal;HPM_P1;HPM_P2
2022/05/03 00:01:02;;;;;;;16.13;10.33;;;12.90;1.00;;;;;;5065873;28;20510;-80
2022/05/03 00:03:33;;;;;;;14.20;11.27;;;12.50;1.00;;;;;;5066568;28;20456;-81
2022/05/03 00:06:06;;;;;;;14.00;10.77;;;12.40;99.90;;;;;;5080797;22;20426;-82
2022/05/03 00:08:41;;;;;;;13.13;11.03;;;12.70;99.90;;;;;;5069790;28;20424;-82
2022/05/03 00:11:10;;;;;;;8.97;8.07;;;12.80;1.00;;;;;;5067842;28;20534;-81
2022/05/03 00:13:43;;;;;;;13.23;8.47;;;12.90;1.00;;;;;;5067591;28;20480;-82
2022/05/03 00:16:10;;;;;;;8.70;7.73;;;;;;;;;;5067529;28;20438;-83
2022/05/03 00:18:37;;;;;;;9.67;7.77;;;13.10;1.00;;;;;;5065868;28;20417;-82
2022/05/03 00:21:06;;;;;;;10.23;8.33;;;13.10;99.90;;;;;;5066830;28;20446;-83
2022/05/03 00:23:33;;;;;;;8.03;7.23;;;13.10;1.00;;;;;;5068046;28;20536;-83
2022/05/03 00:26:00;;;;;;;8.27;7.57;;;13.60;1.00;;;;;;5067089;28;20447;-82
2022/05/03 00:28:30;;;;;;;7.90;7.20;;;13.10;1.00;;;;;;5066593;28;20456;-83
2022/05/03 00:30:58;;;;;;;10.00;7.30;;;13.00;99.90;;;;;;5068399;28;20446;-82
2022/05/03 00:33:25;;;;;;;7.93;7.13;;;13.00;99.90;;;;;;5067889;28;20521;-83
2022/05/03 00:35:51;;;;;;;12.83;8.20;;;13.20;1.00;;;;;;5069071;28;20424;-83
2022/05/03 00:38:20;;;;;;;9.37;8.37;;;13.10;1.00;;;;;;5067270;28;20446;-82
2022/05/03 00:40:53;;;;;;;10.27;7.73;;;13.00;99.90;;;;;;5067616;28;20400;-83
2022/05/03 00:43:24;;;;;;;11.20;8.30;;;13.20;1.00;;;;;;5069396;28;20449;-82
2022/05/03 00:45:55;;;;;;;7.97;7.10;;;12.90;1.00;;;;;;5070554;28;20486;-81
2022/05/03 00:48:32;;;;;;;9.50;8.20;;;12.90;99.90;;;;;;5070778;28;20430;-82
2022/05/03 00:51:10;;;;;;;12.70;8.07;;;13.00;1.00;;;;;;5069315;28;20410;-82
2022/05/03 00:53:53;;;;;;;9.17;8.23;;;12.90;99.90;;;;;;5068951;28;20471;-82
2022/05/03 00:56:38;;;;;;;9.07;8.10;;;12.80;99.90;;;;;;5069204;28;20447;-82
2022/05/03 00:59:17;;;;;;;10.80;8.10;;;12.80;99.90;;;;;;5073701;28;20434;-82
2022/05/03 01:02:00;;;;;;;8.23;7.47;;;12.80;99.90;;;;;;5072253;28;20429;-83
2022/05/03 01:04:38;;;;;;;10.50;7.70;;;12.70;99.90;;;;;;5071791;28;20465;-81
2022/05/03 01:07:24;;;;;;;8.20;7.13;;;12.60;1.00;;;;;;5069451;28;20474;-84
2022/05/03 01:10:04;;;;;;;7.67;6.83;;;12.80;99.90;;;;;;5070181;28;20430;-82
2022/05/03 01:12:47;;;;;;;12.03;8.20;;;12.70;99.90;;;;;;5070208;28;20454;-83
2022/05/03 01:15:19;;;;;;;12.17;8.07;;;12.70;99.90;;;;;;5070119;28;20426;-83
2022/05/03 01:17:49;;;;;;;9.30;8.40;;;12.70;1.00;;;;;;5068698;28;20524;-82
2022/05/03 01:20:27;;;;;;;9.00;7.80;;;12.60;99.90;;;;;;5069058;28;20447;-81
2022/05/03 01:23:33;;;;;;;8.50;7.60;;;12.50;99.90;;;;;;5070068;28;20469;-83
2022/05/03 01:26:30;;;;;;;11.70;8.03;;;12.70;1.00;;;;;;5070209;28;20440;-82
2022/05/03 01:29:16;;;;;;;9.70;7.80;;;12.30;1.00;;;;;;5060063;28;20496;-82
2022/05/03 01:31:43;;;;;;;15.67;7.67;;;12.30;1.00;;;;;;5070002;28;20402;-82
2022/05/03 01:34:12;;;;;;;12.03;8.80;;;12.20;1.00;;;;;;5069369;28;20499;-82
2022/05/03 01:36:50;;;;;;;9.03;8.13;;;12.30;1.00;;;;;;5069673;28;20441;-83
2022/05/03 01:39:29;;;;;;;9.30;8.07;;;12.10;1.00;;;;;;5069123;28;20458;-83
2022/05/03 01:42:05;;;;;;;10.30;7.90;;;12.10;1.00;;;;;;5069647;28;20446;-83
2022/05/03 01:44:39;;;;;;;9.37;8.40;;;12.50;1.00;;;;;;5071087;28;20445;-82
2022/05/03 01:47:14;;;;;;;10.03;8.50;;;12.40;1.00;;;;;;5070420;28;20488;-82
2022/05/03 01:53:02;;;;;;;12.50;8.93;;;12.10;1.00;;;;;;5069908;28;20405;-82
2022/05/03 01:55:56;;;;;;;10.13;8.40;;;12.10;1.00;;;;;;5068256;28;20417;-82
2022/05/03 01:58:36;;;;;;;14.67;9.57;;;12.10;1.00;;;;;;5066747;28;20790;-81
2022/05/03 02:01:13;;;;;;;14.57;10.10;;;11.60;1.00;;;;;;5069447;28;20492;-82
2022/05/03 02:03:49;;;;;;;9.70;8.70;;;12.10;1.00;;;;;;5067988;28;20440;-82
2022/05/03 02:06:19;;;;;;;9.80;8.83;;;12.10;1.00;;;;;;5068592;28;20492;-83
2022/05/03 02:08:57;;;;;;;11.27;9.57;;;11.90;1.00;;;;;;5074510;28;20449;-82
2022/05/03 02:11:42;;;;;;;10.90;8.13;;;12.30;1.00;;;;;;5076048;28;20424;-82
2022/05/03 02:17:18;;;;;;;11.43;8.70;;;11.70;1.00;;;;;;5053972;28;20450;-82
2022/05/03 02:20:13;;;;;;;10.33;9.30;;;11.70;58.20;;;;;;5080209;28;20488;-81
2022/05/03 02:22:56;;;;;;;12.43;9.50;;;11.80;1.00;;;;;;5079159;28;20423;-82
2022/05/03 02:25:37;;;;;;;9.93;9.03;;;11.70;1.00;;;;;;5075601;28;20417;-82
2022/05/03 02:28:08;;;;;;;12.50;9.00;;;11.60;1.00;;;;;;5072612;28;20436;-82
2022/05/03 02:30:36;;;;;;;10.67;9.30;;;11.50;1.00;;;;;;5074036;28;20426;-82
2022/05/03 02:33:10;;;;;;;8.67;7.97;;;11.50;1.00;;;;;;5075868;28;20434;-82
2022/05/03 02:35:37;;;;;;;9.93;8.20;;;11.30;1.00;;;;;;5078852;28;20452;-82
2022/05/03 02:38:06;;;;;;;8.83;7.97;;;11.30;1.00;;;;;;5077590;28;20492;-82
2022/05/03 02:40:34;;;;;;;11.50;8.43;;;11.20;1.00;;;;;;5075069;28;20424;-82
2022/05/03 02:43:01;;;;;;;14.00;9.47;;;11.10;1.00;;;;;;5076826;28;20420;-82
2022/05/03 02:45:34;;;;;;;10.60;8.70;;;11.10;1.00;;;;;;5074081;28;20442;-82
2022/05/03 02:48:13;;;;;;;13.47;9.27;;;11.00;14.30;;;;;;5072570;28;20640;-82
2022/05/03 02:50:45;;;;;;;9.43;8.53;;;10.90;99.90;;;;;;5072581;28;20412;-83
2022/05/03 02:53:22;;;;;;;9.57;8.57;;;10.80;99.90;;;;;;5065258;28;20401;-82
2022/05/03 02:55:51;;;;;;;9.23;8.33;;;10.80;99.90;;;;;;5062084;28;20503;-82
2022/05/03 02:58:38;;;;;;;11.53;8.90;;;10.80;99.90;;;;;;5064062;28;20453;-82
2022/05/03 03:04:16;;;;;;;12.43;8.90;;;10.90;99.90;;;;;;5068318;28;20488;-82
2022/05/03 03:06:43;;;;;;;11.27;9.70;;;10.80;99.90;;;;;;5069618;28;20535;-83
2022/05/03 03:09:15;;;;;;;9.53;8.53;;;10.70;99.90;;;;;;5066389;28;20446;-83
2022/05/03 03:11:54;;;;;;;12.10;9.47;;;10.80;1.00;;;;;;5065404;28;20430;-83
2022/05/03 03:14:29;;;;;;;9.57;8.17;;;10.80;1.00;;;;;;5068286;28;20412;-82
2022/05/03 03:17:06;;;;;;;13.70;9.60;;;10.60;1.00;;;;;;5068595;28;20473;-82
2022/05/03 03:20:04;;;;;;;11.77;9.13;;;10.60;1.00;;;;;;5069287;28;20450;-82
2022/05/03 03:22:32;;;;;;;10.57;9.53;;;10.50;1.00;;;;;;5070849;28;20436;-82
2022/05/03 03:24:59;;;;;;;10.67;8.77;;;11.10;1.00;;;;;;5069336;28;20459;-82
2022/05/03 03:27:27;;;;;;;10.43;8.30;;;10.70;1.00;;;;;;5069773;28;20488;-81
2022/05/03 03:29:56;;;;;;;13.40;10.80;;;10.80;99.90;;;;;;5072188;28;20434;-82
2022/05/03 03:32:24;;;;;;;12.50;9.43;;;10.60;1.00;;;;;;5076555;28;20433;-81
2022/05/03 03:34:54;;;;;;;9.27;8.37;;;10.60;1.00;;;;;;5078622;28;20454;-80
2022/05/03 03:37:24;;;;;;;11.03;9.37;;;10.50;1.00;;;;;;5078016;28;20428;-81
2022/05/03 03:39:51;;;;;;;11.83;8.27;;;10.40;1.00;;;;;;5079154;28;20405;-81
2022/05/03 03:42:18;;;;;;;11.27;8.60;;;10.50;5.80;;;;;;5079278;28;20472;-82
2022/05/03 03:44:46;;;;;;;11.07;9.30;;;10.30;1.00;;;;;;5079099;28;20469;-81
2022/05/03 03:47:14;;;;;;;11.03;9.70;;;10.40;99.90;;;;;;5076808;28;20526;-81
2022/05/03 03:49:41;;;;;;;11.40;9.07;;;10.40;99.90;;;;;;5076184;28;20425;-81
2022/05/03 03:52:10;;;;;;;11.47;8.40;;;10.60;99.90;;;;;;5075076;28;20420;-82
2022/05/03 03:54:40;;;;;;;12.30;9.27;;;10.30;1.00;;;;;;5075725;28;20456;-82
2022/05/03 03:57:07;;;;;;;11.60;8.63;;;;;;;;;;5069156;28;20512;-82
2022/05/03 03:59:34;;;;;;;11.13;9.00;;;10.40;1.00;;;;;;5065817;28;20456;-82
2022/05/03 04:02:02;;;;;;;10.80;9.57;;;9.60;99.90;;;;;;5069790;28;20454;-82
2022/05/03 04:04:31;;;;;;;10.63;8.87;;;10.20;99.90;;;;;;5063244;28;20488;-82
2022/05/03 04:06:58;;;;;;;10.20;8.75;;;10.30;99.90;;;;;;5062735;28;20450;-83
2022/05/03 04:09:27;;;;;;;12.80;9.70;;;10.30;99.90;;;;;;5064320;28;20665;-82
2022/05/03 04:11:54;;;;;;;8.90;7.67;;;10.30;97.90;;;;;;5065144;28;20463;-81
2022/05/03 04:14:21;;;;;;;9.40;8.33;;;10.30;1.00;;;;;;5065980;28;20447;-82
2022/05/03 04:16:48;;;;;;;10.57;8.30;;;10.40;99.90;;;;;;5065654;28;20462;-83
2022/05/03 04:19:15;;;;;;;10.87;8.37;;;10.30;99.90;;;;;;5064119;28;20438;-83
2022/05/03 04:21:42;;;;;;;10.43;7.50;;;10.40;1.00;;;;;;5066748;28;20441;-83
2022/05/03 04:24:08;;;;;;;12.07;8.80;;;10.50;1.00;;;;;;5067752;28;20456;-82
2022/05/03 04:26:37;;;;;;;9.97;8.30;;;10.40;1.00;;;;;;5067693;28;20440;-83
2022/05/03 04:29:04;;;;;;;13.00;9.73;;;10.40;1.00;;;;;;5072020;28;20445;-81
2022/05/03 04:31:33;;;;;;;8.30;7.50;;;10.50;1.00;;;;;;5078219;28;20426;-80
2022/05/03 04:34:01;;;;;;;9.13;7.38;;;10.50;99.90;;;;;;5077266;28;20418;-80
2022/05/03 04:36:29;;;;;;;12.25;8.15;;;10.50;1.00;;;;;;5075749;28;20457;-81
2022/05/03 04:38:55;;;;;;;9.83;8.10;;;10.60;1.00;;;;;;5075155;28;20207;-81
2022/05/03 04:41:23;;;;;;;10.32;7.63;;;10.60;1.00;;;;;;5072654;28;20422;-82
2022/05/03 04:43:51;;;;;;;10.37;7.77;;;10.60;1.00;;;;;;5073354;28;20231;-82
2022/05/03 04:46:18;;;;;;;11.73;7.82;;;10.60;1.00;;;;;;5073463;28;20526;-81
2022/05/03 04:48:44;;;;;;;7.97;7.17;;;10.70;99.90;;;;;;5072909;28;20199;-82
2022/05/03 04:51:17;;;;;;;13.43;8.43;;;10.80;99.90;;;;;;5072174;28;20442;-82
2022/05/03 04:53:44;;;;;;;8.93;8.00;;;10.90;99.90;;;;;;5073323;28;20537;-82
2022/05/03 04:56:20;;;;;;;8.90;7.50;;;10.90;92.70;;;;;;5070300;28;20568;-82
2022/05/03 04:58:47;;;;;;;13.33;8.13;;;11.00;81.50;;;;;;5069347;28;20430;-81
2022/05/03 05:01:16;;;;;;;9.70;8.37;;;11.10;1.00;;;;;;5071532;28;20479;-82
2022/05/03 05:03:43;;;;;;;9.23;7.33;;;11.10;1.00;;;;;;5073599;28;20434;-81
2022/05/03 05:06:11;;;;;;;11.27;7.60;;;11.10;1.00;;;;;;5072993;28;20436;-81
2022/05/03 05:08:38;;;;;;;10.80;6.70;;;11.20;1.00;;;;;;5073400;28;20441;-82
2022/05/03 05:11:05;;;;;;;10.57;7.17;;;11.20;99.90;;;;;;5074462;28;20441;-82
2022/05/03 05:13:31;;;;;;;15.17;8.13;;;11.20;1.00;;;;;;5072898;28;20453;-82
2022/05/03 05:15:58;;;;;;;11.83;8.53;;;11.60;64.80;;;;;;5071857;28;20923;-82
2022/05/03 05:18:27;;;;;;;13.60;7.50;;;11.30;1.00;;;;;;5070629;28;20450;-82
2022/05/03 05:20:54;;;;;;;14.67;7.80;;;11.40;1.00;;;;;;5070304;28;20492;-82
2022/05/03 05:23:21;;;;;;;10.53;7.67;;;11.50;1.00;;;;;;5070363;28;20423;-83
2022/05/03 05:25:48;;;;;;;9.63;7.53;;;11.60;1.00;;;;;;5069535;28;20492;-83
2022/05/03 05:28:15;;;;;;;10.33;7.57;;;11.50;1.00;;;;;;5069391;28;20420;-83
2022/05/03 05:30:42;;;;;;;10.50;6.37;;;;;;;;;;5068321;28;20441;-82
2022/05/03 05:33:09;;;;;;;7.73;6.97;;;11.50;1.00;;;;;;5070175;28;20441;-82
2022/05/03 05:35:37;;;;;;;11.90;7.03;;;11.60;1.00;;;;;;5069630;28;20803;-82
2022/05/03 05:38:04;;;;;;;7.30;6.70;;;11.60;1.00;;;;;;5071920;28;20469;-82
2022/05/03 05:40:31;;;;;;;7.87;5.53;;;11.60;1.00;;;;;;5074753;28;20450;-83
2022/05/03 05:42:57;;;;;;;6.80;5.80;;;11.70;1.00;;;;;;5075969;28;20487;-82
2022/05/03 05:45:24;;;;;;;10.03;6.90;;;11.70;1.00;;;;;;5075959;28;20485;-82
2022/05/03 05:47:51;;;;;;;7.53;6.40;;;11.80;1.00;;;;;;5079463;28;20462;-82
2022/05/03 05:50:20;;;;;;;6.80;6.10;;;12.00;1.00;;;;;;5079764;28;20945;-83
2022/05/03 05:55:33;;;;;;;6.97;4.20;;;11.90;99.90;;;;;;5079612;28;20481;-84
2022/05/03 05:57:59;;;;;;;6.23;5.10;;;12.00;99.90;;;;;;5080425;28;20465;-83
2022/05/03 06:00:26;;;;;;;11.07;4.70;;;12.30;1.00;;;;;;5079313;28;20446;-83
2022/05/03 06:02:53;;;;;;;6.20;5.27;;;;;;;;;;5079488;28;20450;-83
2022/05/03 06:05:20;;;;;;;5.93;5.30;;;12.20;99.90;;;;;;5080907;28;20481;-82
2022/05/03 06:07:48;;;;;;;7.00;4.73;;;12.30;99.90;;;;;;5078024;22;20592;-78
2022/05/03 06:10:14;;;;;;;7.97;4.67;;;12.30;1.00;;;;;;5058304;28;20500;-77
2022/05/03 06:12:41;;;;;;;7.33;4.57;;;12.30;99.90;;;;;;5058753;28;20442;-78
2022/05/03 06:15:09;;;;;;;6.77;4.70;;;12.40;99.90;;;;;;5058755;28;20412;-78
2022/05/03 06:17:36;;;;;;;4.63;4.10;;;;;;;;;;5059524;28;20492;-78
2022/05/03 06:20:03;;;;;;;6.00;4.20;;;12.60;99.90;;;;;;5064742;28;20465;-76
2022/05/03 06:22:30;;;;;;;4.60;4.20;;;12.60;99.90;;;;;;5065555;28;20423;-77
2022/05/03 06:24:58;;;;;;;9.33;4.20;;;12.60;99.90;;;;;;5062769;28;20488;-78
2022/05/03 06:27:24;;;;;;;4.00;3.60;;;12.70;99.90;;;;;;5058735;28;20474;-78
2022/05/03 06:29:51;;;;;;;4.03;3.10;;;12.70;99.90;;;;;;5058812;28;20488;-78
2022/05/03 06:32:18;;;;;;;6.03;4.00;;;12.70;99.90;;;;;;5058352;28;20813;-77
2022/05/03 06:34:44;;;;;;;4.10;3.30;;;12.70;99.90;;;;;;5059567;28;20464;-78
2022/05/03 06:37:16;;;;;;;3.83;3.33;;;12.80;99.90;;;;;;5060219;28;20999;-78
2022/05/03 06:39:42;;;;;;;4.20;3.80;;;12.80;99.90;;;;;;5058806;28;20436;-78
2022/05/03 06:42:11;;;;;;;14.57;4.20;;;12.80;99.90;;;;;;5058421;28;20469;-78
2022/05/03 06:44:38;;;;;;;7.83;3.20;;;12.70;99.90;;;;;;5059853;28;20482;-78
2022/05/03 06:47:05;;;;;;;4.27;3.83;;;13.00;1.00;;;;;;5056910;28;20462;-78
2022/05/03 06:49:32;;;;;;;5.20;3.67;;;12.70;99.90;;;;;;5057546;28;20466;-78
2022/05/03 06:51:58;;;;;;;4.83;3.70;;;12.50;99.90;;;;;;5056743;28;20527;-78
2022/05/03 06:54:25;;;;;;;4.30;3.93;;;12.70;99.90;;;;;;5056845;28;20499;-79
2022/05/03 06:56:51;;;;;;;4.20;3.80;;;12.60;99.90;;;;;;5056903;28;20568;-78
2022/05/03 06:59:19;;;;;;;5.47;4.57;;;12.80;99.90;;;;;;5055916;28;20478;-79
2022/05/03 07:01:46;;;;;;;6.37;4.03;;;13.00;99.90;;;;;;5057950;28;20454;-79
2022/05/03 07:04:12;;;;;;;3.83;2.97;;;12.90;99.90;;;;;;5058206;28;20438;-79
2022/05/03 07:06:39;;;;;;;5.97;3.10;;;12.90;99.90;;;;;;5056867;28;20478;-78
2022/05/03 07:09:06;;;;;;;6.63;3.17;;;13.00;99.90;;;;;;5057384;28;20745;-78
2022/05/03 07:11:32;;;;;;;6.20;3.03;;;13.00;99.90;;;;;;5056916;28;20442;-78
2022/05/03 07:13:59;;;;;;;3.33;2.17;;;13.00;99.90;;;;;;5057371;28;20802;-78
2022/05/03 07:16:27;;;;;;;3.37;2.37;;;13.00;1.00;;;;;;5056953;28;20546;-77
2022/05/03 07:24:22;;;;;;;4.87;2.73;;;;;;;;;;5067121;28;20430;-77
2022/05/03 07:26:49;;;;;;;7.70;3.03;;;13.60;99.90;;;;;;5067405;28;20461;-77
2022/05/03 07:29:15;;;;;;;5.33;4.83;;;13.60;99.90;;;;;;5066262;28;20439;-77
2022/05/03 07:31:43;;;;;;;6.40;3.23;;;13.60;99.90;;;;;;5063154;28;20436;-77
2022/05/03 07:34:10;;;;;;;5.13;3.13;;;13.50;99.90;;;;;;5065447;28;20460;-78
2022/05/03 07:36:37;;;;;;;3.93;2.67;;;13.50;99.90;;;;;;5065552;28;20478;-77
2022/05/03 07:39:04;;;;;;;3.53;2.50;;;13.60;99.90;;;;;;5064324;28;20442;-77
2022/05/03 07:41:30;;;;;;;4.70;2.47;;;13.50;99.90;;;;;;5065209;28;20417;-77
2022/05/03 07:43:57;;;;;;;3.97;2.40;;;;;;;;;;5064542;28;20430;-78
2022/05/03 07:46:24;;;;;;;4.17;2.10;;;14.10;99.90;;;;;;5064799;28;20516;-77
2022/05/03 07:48:51;;;;;;;5.40;2.47;;;14.10;99.90;;;;;;5063452;28;20996;-77
2022/05/03 07:51:19;;;;;;;3.20;2.90;;;14.30;99.90;;;;;;5058837;28;20453;-77
2022/05/03 07:53:46;;;;;;;5.63;3.07;;;14.30;99.90;;;;;;5058703;28;21015;-78
2022/05/03 07:56:12;;;;;;;4.40;2.83;;;14.50;1.00;;;;;;5061554;28;20485;-79
2022/05/03 07:58:39;;;;;;;6.37;3.00;;;14.60;99.90;;;;;;5065826;28;20534;-79
2022/05/03 08:01:05;;;;;;;4.07;3.67;;;14.40;99.90;;;;;;5065486;28;20445;-79
2022/05/03 08:03:32;;;;;;;3.83;2.90;;;14.30;99.90;;;;;;5063408;28;20819;-77
2022/05/03 08:06:01;;;;;;;4.37;3.70;;;14.70;99.90;;;;;;5064165;28;20541;-77
2022/05/03 08:08:28;;;;;;;4.43;3.40;;;14.60;99.90;;;;;;5059294;28;20806;-77
2022/05/03 08:10:55;;;;;;;3.13;2.47;;;14.70;99.90;;;;;;5066747;28;20449;-79
2022/05/03 08:13:21;;;;;;;6.70;3.67;;;14.70;99.90;;;;;;5064125;28;20518;-78
2022/05/03 08:15:48;;;;;;;3.53;2.90;;;14.40;99.90;;;;;;5064449;28;20438;-78
2022/05/03 08:18:14;;;;;;;3.63;3.33;;;14.50;99.90;;;;;;5065179;28;20447;-79
2022/05/03 08:20:41;;;;;;;4.37;4.00;;;14.60;99.90;;;;;;5063214;28;20472;-78
2022/05/03 08:23:09;;;;;;;4.73;3.20;;;14.80;99.90;;;;;;5060518;28;20449;-78
2022/05/03 08:25:37;;;;;;;4.50;3.20;;;15.00;99.90;;;;;;5056095;28;20579;-79
2022/05/03 08:28:04;;;;;;;6.17;3.57;;;15.20;99.90;;;;;;5057125;28;20509;-79
2022/05/03 08:30:31;;;;;;;3.53;3.10;;;15.30;99.90;;;;;;5058479;28;20548;-78
2022/05/03 08:32:57;;;;;;;3.77;3.47;;;15.40;99.90;;;;;;5058078;28;20491;-79
2022/05/03 08:35:24;;;;;;;12.37;3.50;;;15.30;99.90;;;;;;5056835;28;20852;-78
2022/05/03 08:43:21;;;;;;;3.70;3.43;;;15.60;99.90;;;;;;5063018;28;20542;-79
2022/05/03 08:45:50;;;;;;;4.20;3.80;;;15.90;99.90;;;;;;5057198;28;20481;-79
2022/05/03 08:48:18;;;;;;;5.33;4.37;;;15.80;99.90;;;;;;5055298;28;20476;-77
2022/05/03 08:50:46;;;;;;;4.10;3.70;;;15.70;99.90;;;;;;5060266;28;20446;-77
2022/05/03 08:53:14;;;;;;;4.20;3.80;;;15.20;99.90;;;;;;5066055;28;20444;-77
2022/05/03 08:55:42;;;;;;;8.87;4.40;;;15.10;99.90;;;;;;5066469;28;20441;-76
2022/05/03 08:58:09;;;;;;;4.80;3.50;;;15.40;99.90;;;;;;5064311;28;20469;-77
2022/05/03 09:00:36;;;;;;;5.63;4.37;;;15.40;99.90;;;;;;5068476;28;20416;-77
2022/05/03 09:03:04;;;;;;;4.73;3.70;;;15.10;99.90;;;;;;5060735;28;20518;-79
2022/05/03 09:05:31;;;;;;;7.07;3.77;;;15.10;99.90;;;;;;5057058;28;20843;-77
2022/05/03 09:07:59;;;;;;;4.30;4.00;;;15.00;99.90;;;;;;5055980;28;20488;-77
2022/05/03 09:10:28;;;;;;;4.90;4.10;;;15.40;99.90;;;;;;5055885;28;20430;-78
2022/05/03 09:13:14;;;;;;;6.25;3.38;;;15.50;99.90;;;;;;5055716;28;20856;-79
2022/05/03 09:15:41;;;;;;;4.40;3.50;;;15.50;99.90;;;;;;5055250;28;20195;-79
2022/05/03 09:18:10;;;;;;;4.67;3.03;;;15.50;99.90;;;;;;5054112;28;20877;-77
2022/05/03 09:26:11;;;;;;;3.70;3.40;;;16.10;99.90;;;;;;5063454;28;20508;-78
2022/05/03 09:28:49;;;;;;;4.63;3.50;;;16.00;99.90;;;;;;5057983;28;20781;-79
2022/05/03 09:31:27;;;;;;;4.93;3.30;;;16.10;99.90;;;;;;5061999;28;20463;-79
2022/05/03 09:33:54;;;;;;;4.90;3.40;;;16.20;99.90;;;;;;5059332;28;20471;-78
2022/05/03 09:36:21;;;;;;;7.33;2.93;;;15.90;99.90;;;;;;5063758;28;20476;-79
2022/05/03 09:38:48;;;;;;;4.37;2.50;;;15.70;99.90;;;;;;5060299;28;20507;-79
2022/05/03 09:41:16;;;;;;;5.37;2.70;;;15.80;99.90;;;;;;5063201;28;20472;-78
2022/05/03 09:44:04;;;;;;;3.00;2.47;;;15.90;99.90;;;;;;5065524;28;20521;-79
2022/05/03 09:46:31;;;;;;;3.63;2.40;;;16.00;99.90;;;;;;5065300;28;20496;-78
2022/05/03 09:48:58;;;;;;;6.50;3.20;;;16.00;99.90;;;;;;5059625;28;20474;-78
2022/05/03 09:51:25;;;;;;;2.43;2.23;;;15.90;99.90;;;;;;5055509;28;20425;-78
2022/05/03 09:53:57;;;;;;;7.67;5.00;;;16.10;99.90;;;;;;5055411;28;20486;-78
2022/05/03 09:56:27;;;;;;;4.70;3.05;;;16.10;99.90;;;;;;5053809;28;20475;-78
2022/05/03 09:58:57;;;;;;;5.77;3.20;;;16.40;99.90;;;;;;5055618;28;20211;-78
2022/05/03 10:01:26;;;;;;;3.97;3.23;;;16.20;99.90;;;;;;5055340;28;20430;-77
2022/05/03 10:03:53;;;;;;;3.23;2.13;;;16.50;99.90;;;;;;5057612;28;20453;-78
2022/05/03 10:06:20;;;;;;;5.37;2.40;;;16.60;99.90;;;;;;5063205;28;20592;-78
2022/05/03 10:08:48;;;;;;;4.07;2.50;;;16.60;99.90;;;;;;5063274;28;20437;-78
2022/05/03 10:11:16;;;;;;;1.73;1.60;;;16.60;99.90;;;;;;5061944;28;20459;-78
2022/05/03 10:13:43;;;;;;;2.50;2.30;;;16.60;99.90;;;;;;5058947;28;20481;-79
2022/05/03 10:21:50;;;;;;;4.50;2.30;;;16.50;99.90;;;;;;5058263;28;20409;-79
2022/05/03 10:24:17;;;;;;;2.57;2.00;;;16.70;99.90;;;;;;5059653;28;20449;-78
2022/05/03 10:27:05;;;;;;;2.90;2.70;;;16.70;99.90;;;;;;5060874;28;20507;-78
2022/05/03 10:29:33;;;;;;;3.57;2.30;;;16.80;99.90;;;;;;5063750;28;20438;-78
2022/05/03 10:32:03;;;;;;;4.00;2.60;;;17.00;99.90;;;;;;5060078;28;20819;-78
2022/05/03 10:34:51;;;;;;;2.80;2.60;;;16.90;99.90;;;;;;5066027;28;20440;-78
2022/05/03 10:37:19;;;;;;;3.87;2.07;;;16.80;99.90;;;;;;5060043;28;20602;-79
2022/05/03 10:39:48;;;;;;;5.47;3.67;;;16.60;99.90;;;;;;5057586;28;20830;-78
2022/05/03 10:42:16;;;;;;;3.50;2.30;;;16.70;99.90;;;;;;5058143;28;20502;-78
2022/05/03 10:44:55;;;;;;;2.83;2.40;;;16.90;99.90;;;;;;5058223;28;20449;-79
2022/05/03 10:47:41;;;;;;;5.20;2.27;;;17.40;1.00;;;;;;5058159;28;20512;-80
2022/05/03 10:50:29;;;;;;;2.63;1.90;;;17.50;99.90;;;;;;5057599;28;20464;-78
2022/05/03 10:53:31;;;;;;;3.47;2.40;;;17.60;99.90;;;;;;5059680;28;20526;-78
2022/05/03 10:56:19;;;;;;;3.00;1.93;;;17.20;99.90;;;;;;5059514;28;20446;-77
2022/05/03 10:58:48;;;;;;;2.73;2.07;;;17.30;99.90;;;;;;5062980;28;20465;-78
2022/05/03 11:01:18;;;;;;;7.90;2.00;;;17.20;99.90;;;;;;5064233;28;20476;-77
2022/05/03 11:04:12;;;;;;;3.13;1.90;;;17.00;99.90;;;;;;5067148;28;20426;-79
2022/05/03 11:06:46;;;;;;;2.10;1.90;;;17.10;99.90;;;;;;5060553;28;20493;-78
2022/05/03 11:09:16;;;;;;;3.63;2.20;;;17.10;99.90;;;;;;5069076;28;20452;-78
2022/05/03 11:11:58;;;;;;;6.27;2.33;;;17.10;99.90;;;;;;5062176;28;20449;-78
2022/05/03 11:14:48;;;;;;;2.40;2.03;;;17.10;99.90;;;;;;5058096;28;20499;-77
2022/05/03 11:17:14;;;;;;;4.43;2.40;;;17.20;99.90;;;;;;5058858;28;20469;-79
2022/05/03 11:19:49;;;;;;;2.80;2.20;;;17.30;99.90;;;;;;5061062;28;20442;-79
2022/05/03 11:22:19;;;;;;;2.20;2.00;;;17.40;99.90;;;;;;5061913;28;20718;-77
2022/05/03 11:24:47;;;;;;;5.27;2.30;;;17.40;99.90;;;;;;5065212;28;20437;-79
2022/05/03 11:27:15;;;;;;;2.93;2.13;;;17.20;99.90;;;;;;5062109;28;20489;-79
2022/05/03 11:29:43;;;;;;;4.07;1.90;;;17.20;99.90;;;;;;5060677;28;20866;-79
2022/05/03 11:32:10;;;;;;;5.07;2.20;;;17.20;99.90;;;;;;5059182;28;20458;-78
2022/05/03 11:34:38;;;;;;;2.33;1.60;;;17.20;99.90;;;;;;5058757;28;20528;-79
2022/05/03 11:37:07;;;;;;;1.90;1.80;;;17.00;99.90;;;;;;5058069;28;20469;-78
2022/05/03 11:39:36;;;;;;;2.20;2.00;;;17.30;99.90;;;;;;5059161;28;20537;-79
2022/05/03 11:42:06;;;;;;;2.63;1.90;;;17.40;99.90;;;;;;5059618;28;20456;-79
2022/05/03 11:44:33;;;;;;;2.50;2.30;;;17.50;99.90;;;;;;5058602;28;20461;-79
2022/05/03 11:47:03;;;;;;;1.70;1.60;;;17.60;99.90;;;;;;5058562;28;20485;-78
2022/05/03 11:49:32;;;;;;;2.10;1.87;;;17.60;99.90;;;;;;5060827;28;20449;-78
2022/05/03 11:57:56;;;;;;;2.90;1.50;;;17.60;99.90;;;;;;5014744;28;20796;-78
2022/05/03 12:00:22;;;;;;;2.27;2.07;;;17.70;99.90;;;;;;5043090;28;20449;-78
2022/05/03 12:02:49;;;;;;;2.50;1.63;;;17.80;1.00;;;;;;5058026;28;20456;-79
2022/05/03 12:05:19;;;;;;;2.87;1.80;;;17.80;99.90;;;;;;5056401;28;21003;-78
2022/05/03 12:07:48;;;;;;;2.20;1.60;;;17.60;99.90;;;;;;5080974;22;20528;-82
2022/05/03 12:10:22;;;;;;;2.17;1.80;;;17.80;99.90;;;;;;5075030;28;20446;-83
2022/05/03 12:13:09;;;;;;;4.10;1.77;;;18.30;99.90;;;;;;5075080;28;20426;-82
2022/05/03 12:15:39;;;;;;;1.90;1.60;;;17.70;99.90;;;;;;5076664;28;20434;-82
2022/05/03 12:18:12;;;;;;;2.20;2.00;;;17.90;99.90;;;;;;5076882;28;20457;-82
2022/05/03 12:20:44;;;;;;;2.13;1.37;;;17.80;1.00;;;;;;5076259;28;20429;-83
2022/05/03 12:23:17;;;;;;;1.67;1.57;;;18.10;99.90;;;;;;5076637;28;20441;-83
2022/05/03 12:25:47;;;;;;;1.53;1.33;;;18.20;99.90;;;;;;5076635;28;20448;-83
2022/05/03 12:28:14;;;;;;;5.07;1.33;;;;;;;;;;5072923;28;20480;-82
2022/05/03 12:30:42;;;;;;;1.33;1.23;;;18.10;99.90;;;;;;5072987;28;20434;-82
2022/05/03 12:33:12;;;;;;;1.70;1.23;;;18.20;99.90;;;;;;5074516;28;20422;-83
2022/05/03 12:35:42;;;;;;;2.23;2.00;;;18.20;99.90;;;;;;5074324;28;20419;-83
2022/05/03 12:38:15;;;;;;;2.63;1.67;;;18.10;99.90;;;;;;5076043;28;20470;-82
2022/05/03 12:40:44;;;;;;;1.23;1.13;;;;;;;;;;5075430;28;20410;-83
2022/05/03 12:43:15;;;;;;;1.30;1.20;;;18.30;99.90;;;;;;5072494;28;20450;-83
2022/05/03 12:45:42;;;;;;;1.70;0.90;;;;;;;;;;5071228;28;20433;-83
2022/05/03 12:48:10;;;;;;;1.40;1.30;;;18.20;99.90;;;;;;5071166;28;20536;-83
2022/05/03 12:50:38;;;;;;;2.00;1.70;;;;;;;;;;5071220;28;20445;-82
2022/05/03 12:53:05;;;;;;;1.87;1.10;;;;;;;;;;5071106;28;20446;-82
2022/05/03 12:55:32;;;;;;;1.40;1.30;;;;;;;;;;5071921;28;20430;-82
2022/05/03 13:00:45;;;;;;;2.43;1.20;;;18.30;99.90;;;;;;5071432;28;20402;-83
2022/05/03 13:03:12;;;;;;;1.80;1.40;;;18.00;99.90;;;;;;5072203;28;20445;-82
2022/05/03 13:05:39;;;;;;;1.53;1.23;;;17.70;99.90;;;;;;5075533;28;20458;-82
2022/05/03 13:08:06;;;;;;;5.53;2.07;;;17.80;1.00;;;;;;5074900;28;20500;-82
2022/05/03 13:10:34;;;;;;;2.40;1.70;;;;;;;;;;5072762;28;20422;-83
2022/05/03 13:13:02;;;;;;;2.87;1.63;;;18.20;99.90;;;;;;5067611;28;20454;-82
2022/05/03 13:15:30;;;;;;;1.83;0.93;;;18.40;1.00;;;;;;5067734;28;20460;-82
2022/05/03 13:17:58;;;;;;;2.00;1.63;;;18.40;99.90;;;;;;5068817;28;20457;-82
2022/05/03 13:20:26;;;;;;;1.67;1.57;;;18.40;99.90;;;;;;5068846;28;20442;-83
2022/05/03 13:22:53;;;;;;;2.73;1.30;;;18.60;99.90;;;;;;5069264;28;20477;-83
2022/05/03 13:25:19;;;;;;;1.93;1.43;;;18.70;99.90;;;;;;5075348;28;20453;-82
2022/05/03 13:27:46;;;;;;;2.23;1.60;;;18.90;99.90;;;;;;5077164;28;20496;-82
2022/05/03 13:30:14;;;;;;;3.07;1.30;;;18.50;99.90;;;;;;5076905;28;20453;-82
2022/05/03 13:32:41;;;;;;;3.53;1.40;;;;;;;;;;5072238;28;20568;-82
2022/05/03 13:35:10;;;;;;;1.30;1.20;;;18.90;99.90;;;;;;5071136;28;20451;-82
2022/05/03 13:40:30;;;;;;;3.43;1.30;;;;;;;;;;5070020;28;20434;-83
2022/05/03 13:42:57;;;;;;;1.47;1.37;;;19.40;1.00;;;;;;5069524;28;20471;-83
2022/05/03 13:45:24;;;;;;;3.27;1.23;;;;;;;;;;5070189;28;20549;-83
2022/05/03 13:47:52;;;;;;;1.23;1.10;;;;;;;;;;5073676;28;20478;-82
2022/05/03 13:50:20;;;;;;;1.40;1.30;;;19.40;99.90;;;;;;5072567;28;20446;-83
2022/05/03 13:52:46;;;;;;;1.67;1.27;;;19.30;99.90;;;;;;5069802;28;20464;-83
2022/05/03 13:55:13;;;;;;;1.30;1.20;;;19.20;99.90;;;;;;5069540;28;20457;-83